createdAt,value
2024-01-06T00:00:06.267Z,97034.81
2024-01-06T00:02:32.918Z,97041.53
2024-01-06T00:04:59.510Z,97038.94
2024-01-06T00:07:26.003Z,97041.47
2024-01-06T00:09:52.580Z,97043.94
2024-01-06T00:12:19.844Z,97045.53
2024-01-06T00:14:46.663Z,97053.09
2024-01-06T00:17:13.312Z,97049.63
2024-01-06T00:19:39.909Z,97055.50
2024-01-06T00:22:06.532Z,97052.09
2024-01-06T00:24:33.085Z,97058.00
2024-01-06T00:26:59.636Z,97063.13
2024-01-06T00:29:26.144Z,97061.38
2024-01-06T00:31:52.671Z,97057.97
2024-01-06T00:34:19.298Z,97058.00
2024-01-06T00:36:46.124Z,97064.78
2024-01-06T00:39:12.788Z,97066.59
2024-01-06T00:41:39.285Z,97064.06
2024-01-06T00:44:05.741Z,97064.94
2024-01-06T00:46:32.184Z,97067.50
2024-01-06T00:48:58.693Z,97070.75
2024-01-06T00:51:25.288Z,97073.28
2024-01-06T00:53:51.850Z,97073.19
2024-01-06T00:56:18.352Z,97072.31
2024-01-06T00:58:44.814Z,97076.69
2024-01-06T01:01:11.323Z,97080.94
2024-01-06T01:03:37.945Z,97082.72
2024-01-06T01:06:04.965Z,97081.91
2024-01-06T01:08:31.909Z,97086.16
2024-01-06T01:10:58.718Z,97082.78
2024-01-06T01:13:25.218Z,97088.88
2024-01-06T01:15:51.689Z,97089.00
2024-01-06T01:18:18.276Z,97095.72
2024-01-06T01:20:44.813Z,97100.72
2024-01-06T01:23:11.466Z,97102.31
2024-01-06T01:25:37.856Z,97103.03
2024-01-06T01:28:04.558Z,97098.75
2024-01-06T01:30:31.530Z,97106.34
2024-01-06T01:32:58.264Z,97106.34
2024-01-06T01:35:24.896Z,97101.28
2024-01-06T01:37:51.374Z,97107.25
2024-01-06T01:40:17.872Z,97103.00
2024-01-06T01:42:44.786Z,97108.09
2024-01-06T01:45:13.107Z,97103.94
2024-01-06T01:47:40.823Z,97107.34
2024-01-06T01:50:09.047Z,97114.13
2024-01-06T01:52:37.867Z,97109.88
2024-01-06T01:55:04.554Z,97108.22
2024-01-06T01:57:31.733Z,97109.06
2024-01-06T01:59:58.577Z,97103.19
2024-01-06T02:02:25.326Z,97106.59
2024-01-06T02:04:51.982Z,97104.13
2024-01-06T02:07:18.496Z,97096.59
2024-01-06T02:09:45.233Z,97106.72
2024-01-06T02:12:11.892Z,97105.88
2024-01-06T02:14:38.384Z,97100.75
2024-01-06T02:17:05.253Z,97103.28
2024-01-06T02:19:31.879Z,97104.22
2024-01-06T02:21:58.391Z,97100.75
2024-01-06T02:24:24.876Z,97097.38
2024-01-06T02:26:51.962Z,97099.94
2024-01-06T02:29:18.607Z,97096.59
2024-01-06T02:31:45.243Z,97094.91
2024-01-06T02:34:12.008Z,97109.28
2024-01-06T02:36:38.669Z,97101.69
2024-01-06T02:39:05.421Z,97107.66
2024-01-06T02:41:31.975Z,97110.31
2024-01-06T02:43:58.429Z,97108.59
2024-01-06T02:46:25.187Z,97111.94
2024-01-06T02:48:51.833Z,97106.88
2024-01-06T02:51:18.500Z,97112.00
2024-01-06T02:53:44.988Z,97112.88
2024-01-06T02:56:12.495Z,97113.78
2024-01-06T02:58:39.838Z,97108.75
2024-01-06T03:01:06.604Z,97110.41
2024-01-06T03:03:33.457Z,97116.28
2024-01-06T03:06:00.062Z,97117.16
2024-01-06T03:08:26.659Z,97123.97
2024-01-06T03:10:53.106Z,97124.75
2024-01-06T03:13:19.597Z,97129.78
2024-01-06T03:15:47.013Z,97123.00
2024-01-06T03:18:13.663Z,97125.50
2024-01-06T03:20:40.231Z,97126.28
2024-01-06T03:23:06.738Z,97121.19
2024-01-06T03:25:33.521Z,97124.59
2024-01-06T03:27:59.980Z,97130.56
2024-01-06T03:30:26.538Z,97129.72
2024-01-06T03:32:53.140Z,97132.22
2024-01-06T03:35:19.672Z,97124.59
2024-01-06T03:37:46.227Z,97129.69
2024-01-06T03:40:13.252Z,97135.66
2024-01-06T03:42:39.785Z,97137.38
2024-01-06T03:45:06.698Z,97133.13
2024-01-06T03:47:33.472Z,97133.78
2024-01-06T03:49:59.997Z,97135.44
2024-01-06T03:52:26.599Z,97135.56
2024-01-06T03:54:53.191Z,97146.66
2024-01-06T03:57:20.034Z,97145.91
2024-01-06T03:59:46.720Z,97148.56
2024-01-06T04:02:13.494Z,97148.66
2024-01-06T04:04:39.960Z,97157.16
2024-01-06T04:07:08.002Z,97155.47
2024-01-06T04:09:34.556Z,97148.66
2024-01-06T04:12:02.311Z,97158.00
2024-01-06T04:14:29.302Z,97156.34
2024-01-06T04:16:57.828Z,97161.44
2024-01-06T04:19:24.927Z,97165.63
2024-01-06T04:21:52.133Z,97165.59
2024-01-06T04:24:18.979Z,97172.41
2024-01-06T04:26:46.199Z,97164.78
2024-01-06T04:29:13.836Z,97164.00
2024-01-06T04:31:41.904Z,97170.72
2024-01-06T04:34:08.786Z,97164.03
2024-01-06T04:36:35.831Z,97170.03
2024-01-06T04:39:02.392Z,97167.56
2024-01-06T04:41:28.941Z,97165.88
2024-01-06T04:43:55.449Z,97163.31
2024-01-06T04:46:22.064Z,97160.81
2024-01-06T04:48:48.681Z,97160.81
2024-01-06T04:51:16.162Z,97162.53
2024-01-06T04:53:42.627Z,97149.78
2024-01-06T04:56:09.130Z,97152.22
2024-01-06T04:58:36.188Z,97149.72
2024-01-06T05:01:03.505Z,97163.25
2024-01-06T05:03:30.332Z,97164.97
2024-01-06T05:05:57.160Z,97159.06
2024-01-06T05:08:23.812Z,97167.56
2024-01-06T05:10:50.603Z,97165.88
2024-01-06T05:13:18.478Z,97170.97
2024-01-06T05:15:45.312Z,97168.47
2024-01-06T05:18:12.260Z,97161.75
2024-01-06T05:20:39.222Z,97162.59
2024-01-06T05:23:05.693Z,97163.47
2024-01-06T05:25:32.146Z,97166.88
2024-01-06T05:27:58.677Z,97171.97
2024-01-06T05:30:25.480Z,97177.09
2024-01-06T05:32:52.063Z,97175.44
2024-01-06T05:35:18.631Z,97183.09
2024-01-06T05:37:45.368Z,97193.25
2024-01-06T05:40:12.837Z,97199.16
2024-01-06T05:42:39.527Z,97200.91
2024-01-06T05:45:06.736Z,97206.06
2024-01-06T05:47:33.690Z,97209.50
2024-01-06T05:50:00.551Z,97204.41
2024-01-06T05:52:27.285Z,97206.16
2024-01-06T05:54:53.846Z,97206.16
2024-01-06T05:57:20.502Z,97204.47
2024-01-06T05:59:47.329Z,97220.56
2024-01-06T06:02:14.864Z,97215.53
2024-01-06T06:04:41.487Z,97218.91
2024-01-06T06:07:08.329Z,97221.47
2024-01-06T06:09:36.092Z,97226.53
2024-01-06T06:12:02.753Z,97227.38
2024-01-06T06:14:30.591Z,97240.03
2024-01-06T06:16:57.975Z,97253.56
2024-01-06T06:19:24.917Z,97251.06
2024-01-06T06:21:51.573Z,97254.47
2024-01-06T06:24:18.286Z,97252.81
2024-01-06T06:26:44.831Z,97260.44
2024-01-06T06:29:11.279Z,97272.28
2024-01-06T06:31:37.913Z,97279.97
2024-01-06T06:34:08.573Z,97271.56
2024-01-06T06:36:36.169Z,97274.09
2024-01-06T06:39:05.217Z,97276.69
2024-01-06T06:41:31.825Z,97282.63
2024-01-06T06:43:59.065Z,97284.28
2024-01-06T06:46:25.663Z,97280.94
2024-01-06T06:48:52.679Z,97275.91
2024-01-06T06:51:19.382Z,97287.75
2024-01-06T06:53:48.261Z,97286.88
2024-01-06T06:56:18.253Z,97289.41
2024-01-06T06:58:45.185Z,97302.03
2024-01-06T07:01:11.730Z,97302.00
2024-01-06T07:03:38.789Z,97300.28
2024-01-06T07:06:05.459Z,97303.72
2024-01-06T07:08:31.896Z,97304.53
2024-01-06T07:10:58.411Z,97307.91
2024-01-06T07:13:24.863Z,97308.75
2024-01-06T07:15:52.387Z,97307.88
2024-01-06T07:18:24.245Z,97306.09
2024-01-06T07:20:50.915Z,97304.41
2024-01-06T07:23:17.419Z,97312.84
2024-01-06T07:25:43.876Z,97316.25
2024-01-06T07:28:10.629Z,97327.25
2024-01-06T07:30:37.175Z,97331.44
2024-01-06T07:33:04.349Z,97349.22
2024-01-06T07:35:30.800Z,97344.97
2024-01-06T07:37:57.214Z,97348.31
2024-01-06T07:40:24.755Z,97347.47
2024-01-06T07:42:52.670Z,97350.84
2024-01-06T07:45:19.474Z,97349.13
2024-01-06T07:47:46.034Z,97340.69
2024-01-06T07:50:12.626Z,97344.88
2024-01-06T07:52:39.149Z,97347.38
2024-01-06T07:55:05.674Z,97349.03
2024-01-06T07:57:32.147Z,97349.91
2024-01-06T08:00:00.080Z,97351.53
2024-01-06T08:02:27.557Z,97346.44
2024-01-06T08:04:55.035Z,97363.34
2024-01-06T08:07:21.632Z,97354.81
2024-01-06T08:09:48.277Z,97358.97
2024-01-06T08:12:16.374Z,97359.84
2024-01-06T08:14:42.943Z,97369.97
2024-01-06T08:17:09.454Z,97370.84
2024-01-06T08:19:37.089Z,97377.69
2024-01-06T08:22:03.973Z,97379.34
2024-01-06T08:24:30.492Z,97386.91
2024-01-06T08:26:56.937Z,97386.88
2024-01-06T08:29:23.446Z,97389.44
2024-01-06T08:31:53.206Z,97387.81
2024-01-06T08:34:20.172Z,97386.06
2024-01-06T08:36:47.155Z,97391.97
2024-01-06T08:39:13.801Z,97390.22
2024-01-06T08:41:40.542Z,97386.81
2024-01-06T08:44:07.016Z,97383.41
2024-01-06T08:46:33.466Z,97378.28
2024-01-06T08:49:01.486Z,97389.34
2024-01-06T08:51:28.366Z,97390.13
2024-01-06T08:53:55.181Z,97395.94
2024-01-06T08:56:21.868Z,97395.78
2024-01-06T08:58:48.385Z,97405.81
2024-01-06T09:01:15.112Z,97403.09
2024-01-06T09:03:42.037Z,97397.94
2024-01-06T09:06:08.562Z,97400.34
2024-01-06T09:08:35.049Z,97403.69
2024-01-06T09:11:01.525Z,97413.78
2024-01-06T09:13:28.227Z,97409.56
2024-01-06T09:15:55.113Z,97403.59
2024-01-06T09:18:22.043Z,97402.72
2024-01-06T09:20:51.249Z,97395.91
2024-01-06T09:23:17.853Z,97411.97
2024-01-06T09:25:44.478Z,97414.50
2024-01-06T09:28:12.034Z,97411.91
2024-01-06T09:30:38.892Z,97411.03
2024-01-06T09:33:05.654Z,97415.22
2024-01-06T09:35:32.142Z,97416.06
2024-01-06T09:37:58.808Z,97418.63
2024-01-06T09:40:25.853Z,97416.09
2024-01-06T09:42:52.834Z,97424.53
2024-01-06T09:45:19.511Z,97419.44
2024-01-06T09:47:50.944Z,97424.53
2024-01-06T09:50:20.894Z,97427.88
2024-01-06T09:52:56.639Z,97432.97
2024-01-06T09:55:27.233Z,97438.94
2024-01-06T09:57:54.592Z,97434.66
2024-01-06T10:00:22.156Z,97429.47
2024-01-06T10:02:50.507Z,97437.09
2024-01-06T10:05:18.462Z,97433.69
2024-01-06T10:07:46.332Z,97440.41
2024-01-06T10:10:13.919Z,97438.81
2024-01-06T10:12:41.579Z,97439.63
2024-01-06T10:15:12.896Z,97443.88
2024-01-06T10:17:40.926Z,97443.88
2024-01-06T10:20:14.544Z,97438.69
2024-01-06T10:22:43.926Z,97439.41
2024-01-06T10:25:13.419Z,97438.53
2024-01-06T10:27:41.436Z,97441.84
2024-01-06T10:30:09.434Z,97436.66
2024-01-06T10:32:37.568Z,97437.44
2024-01-06T10:35:06.967Z,97438.16
2024-01-06T10:37:33.606Z,97446.56
2024-01-06T10:40:10.320Z,97452.44
2024-01-06T10:42:40.391Z,97447.25
2024-01-06T10:45:14.780Z,97441.28
2024-01-06T10:47:46.385Z,97444.50
2024-01-06T10:50:15.451Z,97441.06
2024-01-06T10:52:43.184Z,97435.84
2024-01-06T10:55:10.457Z,97441.72
2024-01-06T10:57:38.857Z,97451.91
2024-01-06T11:00:06.577Z,97444.22
2024-01-06T11:02:33.190Z,97449.22
2024-01-06T11:04:59.820Z,97441.53
2024-01-06T11:07:27.327Z,97447.28
2024-01-06T11:10:18.312Z,97443.84
2024-01-06T11:12:45.257Z,97444.63
2024-01-06T11:15:11.799Z,97444.56
2024-01-06T11:17:59.902Z,97442.06
2024-01-06T11:20:27.893Z,97439.38
2024-01-06T11:22:54.681Z,97446.22
2024-01-06T11:25:22.843Z,97441.75
2024-01-06T11:27:51.157Z,97442.69
2024-01-06T11:30:28.302Z,97452.78
2024-01-06T11:33:00.166Z,97451.03
2024-01-06T11:35:28.522Z,97445.00
2024-01-06T11:38:01.399Z,97442.78
2024-01-06T11:40:38.077Z,97443.56
2024-01-06T11:43:13.100Z,97440.94
2024-01-06T11:45:42.636Z,97439.94
2024-01-06T11:48:11.496Z,97435.72
2024-01-06T11:50:39.707Z,97437.28
2024-01-06T11:53:07.699Z,97425.44
2024-01-06T11:55:35.548Z,97433.94
2024-01-06T11:58:06.870Z,97427.16
2024-01-06T12:00:35.262Z,97431.31
2024-01-06T12:03:02.738Z,97429.66
2024-01-06T12:05:30.076Z,97425.34
2024-01-06T12:07:58.406Z,97422.75
2024-01-06T12:10:26.608Z,97420.13
2024-01-06T12:13:00.965Z,97410.75
2024-01-06T12:15:28.920Z,97410.00
2024-01-06T12:17:55.638Z,97410.88
2024-01-06T12:20:26.725Z,97408.22
2024-01-06T12:22:53.988Z,97415.03
2024-01-06T12:25:24.465Z,97412.41
2024-01-06T12:27:51.643Z,97417.53
2024-01-06T12:30:20.740Z,97418.31
2024-01-06T12:32:50.326Z,97417.47
2024-01-06T12:35:17.961Z,97414.72
2024-01-06T12:37:46.178Z,97420.66
2024-01-06T12:40:14.336Z,97414.03
2024-01-06T12:42:41.074Z,97410.75
2024-01-06T12:45:08.025Z,97401.38
2024-01-06T12:47:35.436Z,97413.34
2024-01-06T12:50:02.073Z,97414.19
2024-01-06T12:52:28.664Z,97415.63
2024-01-06T12:54:55.174Z,97402.16
2024-01-06T12:57:21.975Z,97404.97
2024-01-06T12:59:48.516Z,97412.53
2024-01-06T13:02:14.976Z,97407.41
2024-01-06T13:04:41.458Z,97408.22
2024-01-06T13:07:08.214Z,97413.28
2024-01-06T13:09:34.812Z,97413.34
2024-01-06T13:12:01.786Z,97400.38
2024-01-06T13:14:30.376Z,97409.81
2024-01-06T13:16:57.156Z,97402.09
2024-01-06T13:19:24.752Z,97416.41
2024-01-06T13:21:51.357Z,97413.13
2024-01-06T13:24:18.018Z,97418.38
2024-01-06T13:26:44.632Z,97417.56
2024-01-06T13:29:11.148Z,97425.94
2024-01-06T13:31:38.487Z,97428.50
2024-01-06T13:34:05.887Z,97431.78
2024-01-06T13:36:32.665Z,97438.53
2024-01-06T13:39:00.913Z,97432.63
2024-01-06T13:41:28.412Z,97434.66
2024-01-06T13:43:55.636Z,97433.88
2024-01-06T13:46:22.147Z,97431.41
2024-01-06T13:48:48.898Z,97437.28
2024-01-06T13:51:15.549Z,97439.88
2024-01-06T13:53:42.153Z,97452.66
2024-01-06T13:56:08.782Z,97448.28
2024-01-06T13:58:37.128Z,97448.28
2024-01-06T14:01:04.284Z,97448.38
2024-01-06T14:03:31.061Z,97445.97
2024-01-06T14:05:57.721Z,97450.03
2024-01-06T14:08:25.364Z,97456.31
2024-01-06T14:10:52.164Z,97453.59
2024-01-06T14:13:18.764Z,97454.34
2024-01-06T14:15:45.438Z,97449.97
2024-01-06T14:18:13.504Z,97452.69
2024-01-06T14:20:41.668Z,97444.94
2024-01-06T14:23:08.267Z,97451.81
2024-01-06T14:25:34.823Z,97451.25
2024-01-06T14:28:01.317Z,97447.84
2024-01-06T14:30:28.451Z,97452.88
2024-01-06T14:32:55.135Z,97454.44
2024-01-06T14:35:21.880Z,97464.59
2024-01-06T14:37:48.588Z,97459.50
2024-01-06T14:40:15.408Z,97456.16
2024-01-06T14:42:42.014Z,97458.78
2024-01-06T14:45:09.589Z,97455.34
2024-01-06T14:47:36.106Z,97457.94
2024-01-06T14:50:02.650Z,97458.03
2024-01-06T14:52:29.378Z,97468.28
2024-01-06T14:54:56.179Z,97465.03
2024-01-06T14:57:22.723Z,97465.13
2024-01-06T14:59:49.209Z,97462.72
2024-01-06T15:02:15.635Z,97463.66
2024-01-06T15:04:42.248Z,97470.44
2024-01-06T15:07:08.830Z,97474.75
2024-01-06T15:09:39.808Z,97478.28
2024-01-06T15:12:07.162Z,97478.47
2024-01-06T15:14:33.757Z,97481.09
2024-01-06T15:17:00.257Z,97483.78
2024-01-06T15:19:29.006Z,97482.91
2024-01-06T15:21:56.286Z,97483.84
2024-01-06T15:24:24.776Z,97494.09
2024-01-06T15:26:52.480Z,97495.03
2024-01-06T15:29:19.410Z,97489.25
2024-01-06T15:31:46.002Z,97496.09
2024-01-06T15:34:12.978Z,97491.88
2024-01-06T15:36:39.601Z,97492.69
2024-01-06T15:39:06.453Z,97493.63
2024-01-06T15:41:32.979Z,97502.13
2024-01-06T15:43:59.509Z,97505.53
2024-01-06T15:46:26.036Z,97505.56
2024-01-06T15:48:52.595Z,97505.59
2024-01-06T15:51:19.175Z,97508.16
2024-01-06T15:53:45.720Z,97514.97
2024-01-06T15:56:12.227Z,97507.38
2024-01-06T15:58:38.703Z,97508.19
2024-01-06T16:01:07.094Z,97503.09
2024-01-06T16:03:33.900Z,97506.38
2024-01-06T16:06:01.106Z,97504.66
2024-01-06T16:08:27.781Z,97495.38
2024-01-06T16:10:55.396Z,97502.19
2024-01-06T16:13:21.956Z,97514.06
2024-01-06T16:15:48.708Z,97513.97
2024-01-06T16:18:15.374Z,97508.91
2024-01-06T16:20:41.880Z,97519.94
2024-01-06T16:23:08.397Z,97523.34
2024-01-06T16:25:39.490Z,97523.38
2024-01-06T16:28:07.461Z,97514.97
2024-01-06T16:30:34.091Z,97514.00
2024-01-06T16:33:01.822Z,97517.41
2024-01-06T16:35:28.570Z,97525.03
2024-01-06T16:37:55.984Z,97523.41
2024-01-06T16:40:22.754Z,97531.03
2024-01-06T16:42:53.121Z,97540.41
2024-01-06T16:45:19.721Z,97536.19
2024-01-06T16:47:46.545Z,97542.13
2024-01-06T16:50:13.092Z,97537.06
2024-01-06T16:52:39.524Z,97543.78
2024-01-06T16:55:09.708Z,97542.84
2024-01-06T16:57:36.315Z,97545.41
2024-01-06T17:00:06.020Z,97547.06
2024-01-06T17:02:32.693Z,97541.09
2024-01-06T17:04:59.366Z,97546.13
2024-01-06T17:07:26.248Z,97541.91
2024-01-06T17:09:53.002Z,97541.09
2024-01-06T17:12:22.601Z,97546.19
2024-01-06T17:14:49.643Z,97544.47
2024-01-06T17:17:16.145Z,97552.09
2024-01-06T17:19:42.744Z,97551.25
2024-01-06T17:22:09.339Z,97552.09
2024-01-06T17:24:37.194Z,97552.94
2024-01-06T17:27:04.036Z,97555.47
2024-01-06T17:29:31.734Z,97557.97
2024-01-06T17:31:59.370Z,97558.75
2024-01-06T17:34:25.960Z,97565.63
2024-01-06T17:36:52.777Z,97564.75
2024-01-06T17:39:19.429Z,97572.41
2024-01-06T17:41:53.467Z,97565.56
2024-01-06T17:44:26.050Z,97569.91
2024-01-06T17:46:52.577Z,97573.34
2024-01-06T17:49:19.553Z,97572.50
2024-01-06T17:51:46.250Z,97568.31
2024-01-06T17:54:13.737Z,97575.97
2024-01-06T17:56:40.388Z,97575.97
2024-01-06T17:59:07.096Z,97577.69
2024-01-06T18:01:33.614Z,97575.13
2024-01-06T18:04:00.240Z,97574.25
2024-01-06T18:06:27.028Z,97577.69
2024-01-06T18:08:53.577Z,97586.22
2024-01-06T18:11:20.149Z,97579.47
2024-01-06T18:13:46.678Z,97581.97
2024-01-06T18:16:15.009Z,97579.41
2024-01-06T18:18:41.816Z,97579.38
2024-01-06T18:21:10.010Z,97583.63
2024-01-06T18:23:36.569Z,97581.09
2024-01-06T18:26:04.156Z,97584.44
2024-01-06T18:28:30.842Z,97584.44
2024-01-06T18:30:57.441Z,97579.31
2024-01-06T18:33:24.564Z,97583.59
2024-01-06T18:35:51.417Z,97589.53
2024-01-06T18:38:17.949Z,97591.25
2024-01-06T18:40:44.672Z,97587.81
2024-01-06T18:43:11.304Z,97592.88
2024-01-06T18:45:37.974Z,97588.63
2024-01-06T18:48:04.918Z,97592.88
2024-01-06T18:50:31.500Z,97592.09
2024-01-06T18:52:57.983Z,97592.09
2024-01-06T18:55:24.557Z,97591.25
2024-01-06T18:57:51.472Z,97591.25
2024-01-06T19:00:20.898Z,97582.81
2024-01-06T19:02:49.152Z,97588.78
2024-01-06T19:05:16.008Z,97582.88
2024-01-06T19:07:45.163Z,97585.41
2024-01-06T19:10:12.651Z,97585.38
2024-01-06T19:12:39.811Z,97585.41
2024-01-06T19:15:06.780Z,97592.19
2024-01-06T19:17:33.198Z,97584.56
2024-01-06T19:20:01.550Z,97588.81
2024-01-06T19:22:28.251Z,97590.50
2024-01-06T19:24:55.746Z,97580.25
2024-01-06T19:27:22.661Z,97587.88
2024-01-06T19:29:49.145Z,97586.97
2024-01-06T19:32:16.721Z,97584.53
2024-01-06T19:34:43.848Z,97587.13
2024-01-06T19:37:10.512Z,97583.75
2024-01-06T19:39:37.127Z,97589.69
2024-01-06T19:42:04.610Z,97597.38
2024-01-06T19:44:31.092Z,97600.78
2024-01-06T19:47:01.756Z,97599.94
2024-01-06T19:49:29.140Z,97599.97
2024-01-06T19:51:55.934Z,97600.81
2024-01-06T19:54:22.588Z,97600.81
2024-01-06T19:56:49.448Z,97600.03
2024-01-06T19:59:16.291Z,97601.72
2024-01-06T20:01:42.928Z,97601.75
2024-01-06T20:04:09.551Z,97594.16
2024-01-06T20:06:36.314Z,97597.56
2024-01-06T20:09:04.369Z,97596.72
2024-01-06T20:11:31.175Z,97604.41
2024-01-06T20:13:58.030Z,97606.97
2024-01-06T20:16:24.781Z,97603.59
2024-01-06T20:18:51.584Z,97604.44
2024-01-06T20:21:18.256Z,97599.31
2024-01-06T20:23:45.310Z,97599.31
2024-01-06T20:26:14.455Z,97590.88
2024-01-06T20:28:42.047Z,97596.78
2024-01-06T20:31:08.627Z,97589.94
2024-01-06T20:33:35.296Z,97591.69
2024-01-06T20:36:02.399Z,97582.34
2024-01-06T20:38:29.128Z,97586.56
2024-01-06T20:40:55.722Z,97591.69
2024-01-06T20:43:22.235Z,97580.66
2024-01-06T20:45:50.172Z,97586.56
2024-01-06T20:48:16.947Z,97577.25
2024-01-06T20:50:43.476Z,97578.97
2024-01-06T20:53:10.944Z,97584.97
2024-01-06T20:55:37.645Z,97582.41
2024-01-06T20:58:04.833Z,97579.03
2024-01-06T21:00:34.804Z,97591.78
2024-01-06T21:03:02.392Z,97581.59
2024-01-06T21:05:31.626Z,97585.81
2024-01-06T21:07:59.303Z,97569.72
2024-01-06T21:10:26.605Z,97584.97
2024-01-06T21:12:53.216Z,97585.81
2024-01-06T21:15:19.798Z,97583.28
2024-01-06T21:17:46.370Z,97580.72
2024-01-06T21:20:12.899Z,97583.25
2024-01-06T21:22:39.402Z,97582.38
2024-01-06T21:25:07.629Z,97586.63
2024-01-06T21:27:37.126Z,97584.09
2024-01-06T21:30:06.574Z,97585.00
2024-01-06T21:32:34.639Z,97585.78
2024-01-06T21:35:03.952Z,97582.44
2024-01-06T21:37:30.627Z,97581.63
2024-01-06T21:39:58.966Z,97586.72
2024-01-06T21:42:25.603Z,97589.22
2024-01-06T21:44:52.646Z,97583.25
2024-01-06T21:47:19.112Z,97586.75
2024-01-06T21:49:45.725Z,97593.56
2024-01-06T21:52:12.473Z,97591.00
2024-01-06T21:54:39.106Z,97589.31
2024-01-06T21:57:05.958Z,97591.84
2024-01-06T21:59:32.445Z,97600.34
2024-01-06T22:01:58.979Z,97596.91
2024-01-06T22:04:26.120Z,97597.75
2024-01-06T22:06:52.858Z,97598.59
2024-01-06T22:09:20.077Z,97592.66
2024-01-06T22:11:46.893Z,97605.34
2024-01-06T22:14:14.739Z,97601.97
2024-01-06T22:16:41.572Z,97602.75
2024-01-06T22:19:09.149Z,97595.97
2024-01-06T22:21:41.747Z,97602.75
2024-01-06T22:24:08.419Z,97601.94
2024-01-06T22:26:34.904Z,97598.53
2024-01-06T22:29:01.426Z,97596.88
2024-01-06T22:31:28.407Z,97590.91
2024-01-06T22:33:55.134Z,97597.63
2024-01-06T22:36:21.857Z,97600.22
2024-01-06T22:38:55.096Z,97604.44
2024-01-06T22:41:22.858Z,97596.84
2024-01-06T22:43:49.754Z,97598.56
2024-01-06T22:46:16.713Z,97598.56
2024-01-06T22:48:44.520Z,97599.41
2024-01-06T22:51:11.383Z,97603.63
2024-01-06T22:53:37.990Z,97607.00
2024-01-06T22:56:04.728Z,97609.59
2024-01-06T22:58:31.655Z,97606.16
2024-01-06T23:00:59.268Z,97608.78
2024-01-06T23:03:26.229Z,97609.63
2024-01-06T23:05:53.082Z,97613.09
2024-01-06T23:08:21.127Z,97613.91
2024-01-06T23:10:47.970Z,97614.72
2024-01-06T23:13:14.761Z,97618.09
2024-01-06T23:15:41.547Z,97622.25
2024-01-06T23:18:08.457Z,97620.63
2024-01-06T23:20:34.994Z,97626.56
2024-01-06T23:23:01.599Z,97631.59
2024-01-06T23:25:28.048Z,97631.63
2024-01-06T23:27:54.581Z,97638.38
2024-01-06T23:30:21.275Z,97633.34
2024-01-06T23:32:48.506Z,97631.63
2024-01-06T23:35:15.162Z,97631.63
2024-01-06T23:37:41.941Z,97634.16
2024-01-06T23:40:09.798Z,97640.94
2024-01-06T23:42:36.436Z,97634.16
2024-01-06T23:45:03.851Z,97635.03
2024-01-06T23:47:30.499Z,97641.78
2024-01-06T23:49:57.087Z,97645.09
2024-01-06T23:52:23.722Z,97643.38
2024-01-06T23:54:50.349Z,97644.25
2024-01-06T23:57:16.878Z,97641.75
2024-01-06T23:59:43.451Z,97643.44
